Time;durP1;ratioP1;P1;durP2;ratioP2;P2;SDS_P1;SDS_P2;PMS_P1;PMS_P2;Temp;Humidity;BMP_temperature;BMP_pressure;BME280_temperature;BME280_humidity;BME280_pressure;Samples;Min_cycle;Max_cycle;Signal;HPM_P1;HPM_P2
2022/03/16 00:01:27;;;;;;;42.90;20.83;;;;;;;;;;5044796;28;20402;-60
2022/03/16 00:03:53;;;;;;;41.60;19.85;;;;;;;;;;5046143;28;20040;-60
2022/03/16 00:06:19;;;;;;;43.55;22.58;;;;;;;;;;5045575;28;20032;-60
2022/03/16 00:08:45;;;;;;;48.92;23.80;;;;;;;;;;5045329;28;20147;-60
2022/03/16 00:11:13;;;;;;;51.65;24.85;;;;;;;;;;5045443;28;20045;-60
2022/03/16 00:13:39;;;;;;;51.60;23.83;;;;;;;;;;5045381;28;20045;-60
2022/03/16 00:16:05;;;;;;;48.67;23.42;;;;;;;;;;5044391;28;20128;-60
2022/03/16 00:18:32;;;;;;;49.15;24.05;;;;;;;;;;5045505;28;20037;-60
2022/03/16 00:20:59;;;;;;;36.50;20.67;;;;;;;;;;5045815;28;20052;-59
2022/03/16 00:23:26;;;;;;;41.60;21.02;;;;;;;;;;5045227;28;20059;-60
2022/03/16 00:25:52;;;;;;;36.83;19.50;;;;;;;;;;5045711;28;20470;-59
2022/03/16 00:28:18;;;;;;;40.08;20.83;;;;;;;;;;5045475;28;20061;-60
2022/03/16 00:30:44;;;;;;;32.88;17.90;;;;;;;;;;5043601;28;20090;-59
2022/03/16 00:33:12;;;;;;;37.00;20.17;;;;;;;;;;5045398;28;20041;-60
2022/03/16 00:35:38;;;;;;;35.80;18.05;;;;;;;;;;5044948;28;20052;-59
2022/03/16 00:38:05;;;;;;;39.92;19.58;;;;;;;;;;5045178;28;20461;-60
2022/03/16 00:40:32;;;;;;;45.50;23.33;;;;;;;;;;5044894;28;20617;-60
2022/03/16 00:42:58;;;;;;;45.53;22.67;;;;;;;;;;5044875;28;20052;-60
2022/03/16 00:45:25;;;;;;;46.88;23.05;;;;;;;;;;5026388;28;20055;-60
2022/03/16 00:47:51;;;;;;;51.30;24.65;;;;;;;;;;5045270;28;20049;-60
2022/03/16 00:50:17;;;;;;;52.63;26.02;;;;;;;;;;5045125;28;20105;-60
2022/03/16 00:52:44;;;;;;;54.83;26.27;;;;;;;;;;5044588;28;20049;-60
2022/03/16 00:55:10;;;;;;;52.05;24.83;;;;;;;;;;5044711;28;20041;-60
2022/03/16 00:57:36;;;;;;;49.78;25.10;;;;;;;;;;5044355;28;20048;-60
2022/03/16 01:00:04;;;;;;;48.75;26.13;;;;;;;;;;5044201;28;20048;-59
2022/03/16 01:02:30;;;;;;;47.70;25.80;;;;;;;;;;5044770;28;20052;-59
2022/03/16 01:04:56;;;;;;;51.63;24.00;;;;;;;;;;5044606;28;20127;-60
2022/03/16 01:07:22;;;;;;;40.70;22.52;;;;;;;;;;5044933;28;20064;-59
2022/03/16 01:09:49;;;;;;;40.85;21.48;;;;;;;;;;5044334;28;20059;-59
2022/03/16 01:12:15;;;;;;;40.28;20.77;;;;;;;;;;5043944;28;20056;-59
2022/03/16 01:14:41;;;;;;;37.35;20.80;;;;;;;;;;5043375;28;20064;-59
2022/03/16 01:17:07;;;;;;;32.60;17.90;;;;;;;;;;5044737;28;20049;-59
2022/03/16 01:19:34;;;;;;;34.60;16.80;;;;;;;;;;5044310;28;20406;-59
2022/03/16 01:22:03;;;;;;;35.58;16.00;;;;;;;;;;5026393;28;20059;-59
2022/03/16 01:24:29;;;;;;;28.15;15.13;;;;;;;;;;5043906;28;20566;-60
2022/03/16 01:26:55;;;;;;;23.95;14.95;;;;;;;;;;5043833;28;20037;-60
2022/03/16 01:29:24;;;;;;;24.30;15.32;;;;;;;;;;5043784;28;20045;-60
2022/03/16 01:31:50;;;;;;;;;;;;;;;;;;5045144;28;20522;-59
2022/03/16 01:37:00;;;;;;;20.55;13.75;;;;;;;;;;5043124;28;20116;-60
2022/03/16 01:39:27;;;;;;;22.75;14.00;;;;;;;;;;5044031;28;20052;-59
2022/03/16 01:41:53;;;;;;;58.03;16.02;;;;;;;;;;5043571;28;20048;-61
2022/03/16 01:44:39;;;;;;;39.60;19.45;;;;;;;;;;5042974;28;20127;-62
2022/03/16 01:47:05;;;;;;;33.20;16.73;;;;;;;;;;5042838;28;20048;-61
2022/03/16 01:49:31;;;;;;;37.13;19.90;;;;;;;;;;5043750;28;20045;-61
2022/03/16 01:51:57;;;;;;;31.33;17.95;;;;;;;;;;5043572;28;20557;-62
2022/03/16 01:54:23;;;;;;;41.45;20.92;;;;;;;;;;5044213;28;20496;-61
2022/03/16 01:56:50;;;;;;;35.33;18.30;;;;;;;;;;5044103;28;20454;-61
2022/03/16 01:59:16;;;;;;;29.38;17.15;;;;;;;;;;5042933;28;20047;-61
2022/03/16 02:01:42;;;;;;;38.65;21.08;;;;;;;;;;5042911;28;20068;-61
2022/03/16 02:04:08;;;;;;;33.00;18.35;;;;;;;;;;5043432;28;20049;-62
2022/03/16 02:06:34;;;;;;;30.60;18.13;;;;;;;;;;5043280;28;20052;-62
2022/03/16 02:09:00;;;;;;;33.55;16.58;;;;;;;;;;5043455;28;20140;-62
2022/03/16 02:11:27;;;;;;;30.95;17.13;;;;;;;;;;5043312;28;20055;-62
2022/03/16 02:13:53;;;;;;;30.48;16.95;;;;;;;;;;5042901;28;20076;-62
2022/03/16 02:16:19;;;;;;;32.78;19.00;;;;;;;;;;5042688;28;20443;-61
2022/03/16 02:18:45;;;;;;;32.45;17.73;;;;;;;;;;5043370;28;20061;-62
2022/03/16 02:21:12;;;;;;;36.10;19.50;;;;;;;;;;5043394;28;20555;-62
2022/03/16 02:23:39;;;;;;;37.25;19.33;;;;;;;;;;5043523;28;20047;-62
2022/03/16 02:26:05;;;;;;;36.55;20.58;;;;;;;;;;5043533;28;20049;-61
2022/03/16 02:28:31;;;;;;;40.60;22.63;;;;;;;;;;5042692;28;20045;-62
2022/03/16 02:30:59;;;;;;;32.70;18.42;;;;;;;;;;5042567;28;20049;-62
2022/03/16 02:33:26;;;;;;;38.95;20.40;;;;;;;;;;5043119;28;20504;-62
2022/03/16 02:35:52;;;;;;;31.42;17.98;;;;;;;;;;5043738;28;20805;-62
2022/03/16 02:38:18;;;;;;;33.70;17.60;;;;;;;;;;5042864;28;20514;-62
2022/03/16 02:40:44;;;;;;;36.33;19.42;;;;;;;;;;5042334;28;20497;-62
2022/03/16 02:43:10;;;;;;;37.05;19.05;;;;;;;;;;5024144;28;20045;-61
2022/03/16 02:45:37;;;;;;;30.60;16.90;;;;;;;;;;5041425;28;20546;-62
2022/03/16 02:48:03;;;;;;;41.17;18.17;;;;;;;;;;5042429;28;20450;-62
2022/03/16 02:50:29;;;;;;;30.33;16.10;;;;;;;;;;5042560;28;20033;-62
2022/03/16 02:52:55;;;;;;;27.75;16.90;;;;;;;;;;5044042;28;20044;-62
2022/03/16 02:55:22;;;;;;;27.15;15.75;;;;;;;;;;5046950;28;20049;-61
2022/03/16 02:57:48;;;;;;;92.03;19.20;;;;;;;;;;5046053;28;20080;-61
2022/03/16 03:00:15;;;;;;;30.23;15.90;;;;;;;;;;5046399;28;20084;-61
2022/03/16 03:02:42;;;;;;;60.42;17.40;;;;;;;;;;5046929;28;20045;-61
2022/03/16 03:05:09;;;;;;;29.42;15.43;;;;;;;;;;5047150;28;20083;-61
2022/03/16 03:07:35;;;;;;;47.92;17.63;;;;;;;;;;5046805;28;20057;-61
2022/03/16 03:10:01;;;;;;;75.05;19.25;;;;;;;;;;5046461;28;20522;-61
2022/03/16 03:12:27;;;;;;;258.65;26.58;;;;;;;;;;5044876;28;20045;-60
2022/03/16 03:14:54;;;;;;;129.10;19.42;;;;;;;;;;5023870;28;20051;-62
2022/03/16 03:17:20;;;;;;;37.80;17.92;;;;;;;;;;5046376;28;20083;-61
2022/03/16 03:19:48;;;;;;;39.80;17.48;;;;;;;;;;5045799;28;20041;-61
2022/03/16 03:22:14;;;;;;;116.77;20.07;;;;;;;;;;5045890;28;20501;-61
2022/03/16 03:24:40;;;;;;;35.85;17.33;;;;;;;;;;5045579;28;20041;-62
2022/03/16 03:27:06;;;;;;;48.92;15.95;;;;;;;;;;5027847;28;20045;-62
2022/03/16 03:29:32;;;;;;;30.20;16.10;;;;;;;;;;5044784;28;20047;-62
2022/03/16 03:31:58;;;;;;;23.85;13.82;;;;;;;;;;5046341;28;20049;-61
2022/03/16 03:34:25;;;;;;;23.42;15.48;;;;;;;;;;5046830;28;20110;-61
2022/03/16 03:36:51;;;;;;;24.33;14.93;;;;;;;;;;5046786;28;20394;-61
2022/03/16 03:39:17;;;;;;;29.00;15.90;;;;;;;;;;5045838;28;20045;-61
2022/03/16 03:41:43;;;;;;;28.40;15.85;;;;;;;;;;5046024;28;20103;-61
2022/03/16 03:44:09;;;;;;;25.77;16.00;;;;;;;;;;5045583;28;20469;-61
2022/03/16 03:46:35;;;;;;;28.20;15.23;;;;;;;;;;5045542;28;20045;-62
2022/03/16 03:49:01;;;;;;;31.67;16.35;;;;;;;;;;5046150;28;20403;-62
2022/03/16 03:51:28;;;;;;;28.90;16.02;;;;;;;;;;5045708;28;20455;-62
2022/03/16 03:53:54;;;;;;;31.08;16.42;;;;;;;;;;5045574;28;20449;-61
2022/03/16 03:56:20;;;;;;;30.35;16.73;;;;;;;;;;5046459;28;20048;-61
2022/03/16 03:58:46;;;;;;;31.45;17.50;;;;;;;;;;5045129;28;20442;-61
2022/03/16 04:01:15;;;;;;;34.35;18.52;;;;;;;;;;5046030;28;20163;-62
2022/03/16 04:03:42;;;;;;;36.00;19.42;;;;;;;;;;5045225;28;20053;-61
2022/03/16 04:06:08;;;;;;;36.05;18.85;;;;;;;;;;5045345;28;20084;-62
2022/03/16 04:08:35;;;;;;;43.38;19.45;;;;;;;;;;5044520;28;20481;-61
2022/03/16 04:11:01;;;;;;;38.78;17.95;;;;;;;;;;5045548;28;20033;-62
2022/03/16 04:13:27;;;;;;;34.33;18.25;;;;;;;;;;5027700;28;20052;-62
2022/03/16 04:15:53;;;;;;;42.80;20.48;;;;;;;;;;5045329;28;20123;-62
2022/03/16 04:18:19;;;;;;;35.55;19.25;;;;;;;;;;5045710;28;20051;-62
2022/03/16 04:20:45;;;;;;;33.40;19.08;;;;;;;;;;5045173;28;20727;-61
2022/03/16 04:23:12;;;;;;;32.53;18.20;;;;;;;;;;5026912;28;20094;-62
2022/03/16 04:25:38;;;;;;;33.20;18.55;;;;;;;;;;5044994;28;20037;-62
2022/03/16 04:28:04;;;;;;;33.45;18.58;;;;;;;;;;5045583;28;20045;-61
2022/03/16 04:30:30;;;;;;;33.22;19.60;;;;;;;;;;5044578;28;20041;-62
2022/03/16 04:32:56;;;;;;;36.20;18.58;;;;;;;;;;5045387;28;20499;-61
2022/03/16 04:35:22;;;;;;;29.90;17.73;;;;;;;;;;5044949;28;20048;-61
2022/03/16 04:37:49;;;;;;;29.75;17.42;;;;;;;;;;5044223;28;20041;-61
2022/03/16 04:40:15;;;;;;;28.33;16.50;;;;;;;;;;5045325;28;20360;-61
2022/03/16 04:42:41;;;;;;;28.83;16.80;;;;;;;;;;5045100;28;20123;-61
2022/03/16 04:45:07;;;;;;;27.75;16.83;;;;;;;;;;5044674;28;20505;-61
2022/03/16 04:47:33;;;;;;;29.98;16.98;;;;;;;;;;5044479;28;20037;-62
2022/03/16 04:50:00;;;;;;;36.35;17.00;;;;;;;;;;5044621;28;20045;-61
2022/03/16 04:52:26;;;;;;;25.08;15.15;;;;;;;;;;5044190;28;20041;-61
2022/03/16 04:54:52;;;;;;;28.67;16.75;;;;;;;;;;5045220;28;20051;-62
2022/03/16 04:57:18;;;;;;;23.73;14.77;;;;;;;;;;5044921;28;20045;-61
2022/03/16 04:59:44;;;;;;;25.33;15.85;;;;;;;;;;5044105;28;20041;-61
2022/03/16 05:02:10;;;;;;;33.28;16.70;;;;;;;;;;5044671;28;20037;-62
2022/03/16 05:04:36;;;;;;;26.35;16.40;;;;;;;;;;5044010;28;20045;-62
2022/03/16 05:07:03;;;;;;;28.10;16.25;;;;;;;;;;5044305;28;20045;-61
2022/03/16 05:09:29;;;;;;;26.38;15.32;;;;;;;;;;5044381;28;20048;-61
2022/03/16 05:11:55;;;;;;;25.98;14.60;;;;;;;;;;5044654;28;20708;-62
2022/03/16 05:14:21;;;;;;;25.08;15.10;;;;;;;;;;5044002;28;20382;-61
2022/03/16 05:16:48;;;;;;;23.73;14.05;;;;;;;;;;5043990;28;20049;-61
2022/03/16 05:19:14;;;;;;;23.83;14.27;;;;;;;;;;5043597;28;20742;-62
2022/03/16 05:21:40;;;;;;;30.10;15.88;;;;;;;;;;5044279;28;20053;-61
2022/03/16 05:24:06;;;;;;;30.55;16.33;;;;;;;;;;5044359;28;20540;-61
2022/03/16 05:26:32;;;;;;;31.38;18.23;;;;;;;;;;5044260;28;20071;-62
2022/03/16 05:28:58;;;;;;;32.30;17.33;;;;;;;;;;5044099;28;20378;-62
2022/03/16 05:31:25;;;;;;;32.95;17.33;;;;;;;;;;5044001;28;20041;-61
2022/03/16 05:33:51;;;;;;;30.73;18.10;;;;;;;;;;5026104;28;20055;-61
2022/03/16 05:36:17;;;;;;;31.90;16.70;;;;;;;;;;5026451;28;20072;-61
2022/03/16 05:38:43;;;;;;;36.08;18.90;;;;;;;;;;5043882;28;20041;-62
2022/03/16 05:41:11;;;;;;;38.55;20.20;;;;;;;;;;5026043;28;20060;-61
2022/03/16 05:43:38;;;;;;;40.35;20.38;;;;;;;;;;5043093;28;20049;-61
2022/03/16 05:46:04;;;;;;;37.80;20.30;;;;;;;;;;5025618;28;20052;-61
2022/03/16 05:48:30;;;;;;;36.03;19.65;;;;;;;;;;5043137;28;20043;-61
2022/03/16 05:50:56;;;;;;;37.88;19.60;;;;;;;;;;5043809;28;20045;-61
2022/03/16 05:53:23;;;;;;;39.75;20.33;;;;;;;;;;5044235;28;20040;-61
2022/03/16 05:55:49;;;;;;;39.03;21.70;;;;;;;;;;5043417;28;20045;-60
2022/03/16 05:58:15;;;;;;;42.20;21.30;;;;;;;;;;5043231;28;20526;-61
2022/03/16 06:00:42;;;;;;;38.80;20.98;;;;;;;;;;5043110;28;20041;-61
2022/03/16 06:03:10;;;;;;;45.03;22.67;;;;;;;;;;5043272;28;20052;-61
2022/03/16 06:05:37;;;;;;;39.47;21.48;;;;;;;;;;5043151;28;20045;-61
2022/03/16 06:08:03;;;;;;;44.80;22.17;;;;;;;;;;5043391;28;20575;-61
2022/03/16 06:10:29;;;;;;;36.65;20.05;;;;;;;;;;5043669;28;20051;-61
2022/03/16 06:12:55;;;;;;;39.17;21.08;;;;;;;;;;5043565;28;20052;-61
2022/03/16 06:15:22;;;;;;;40.08;22.20;;;;;;;;;;5040454;28;20107;-61
2022/03/16 06:17:48;;;;;;;45.47;20.52;;;;;;;;;;5040775;28;20041;-61
2022/03/16 06:20:14;;;;;;;39.97;19.63;;;;;;;;;;5024826;28;20690;-61
2022/03/16 06:22:40;;;;;;;43.08;21.50;;;;;;;;;;5039220;28;20131;-61
2022/03/16 06:25:07;;;;;;;48.88;21.80;;;;;;;;;;5026175;28;20044;-62
2022/03/16 06:27:33;;;;;;;43.53;22.15;;;;;;;;;;5027910;28;20037;-62
2022/03/16 06:30:01;;;;;;;37.00;21.05;;;;;;;;;;5030137;28;20049;-62
2022/03/16 06:32:28;;;;;;;36.15;19.92;;;;;;;;;;5033294;28;20046;-62
2022/03/16 06:34:54;;;;;;;43.35;21.95;;;;;;;;;;5027853;28;20132;-61
2022/03/16 06:37:20;;;;;;;36.83;20.15;;;;;;;;;;5031641;28;20048;-62
2022/03/16 06:39:46;;;;;;;36.17;20.63;;;;;;;;;;5028897;28;20076;-62
2022/03/16 06:42:12;;;;;;;38.42;21.15;;;;;;;;;;5037094;28;20037;-62
2022/03/16 06:44:39;;;;;;;35.25;20.70;;;;;;;;;;5038049;28;20037;-62
2022/03/16 06:47:06;;;;;;;38.88;20.83;;;;;;;;;;5023330;28;20052;-62
2022/03/16 06:49:32;;;;;;;39.60;22.38;;;;;;;;;;5043219;28;20447;-62
2022/03/16 06:51:58;;;;;;;41.45;22.05;;;;;;;;;;5043280;28;20045;-62
2022/03/16 06:54:24;;;;;;;41.28;22.30;;;;;;;;;;5043112;28;20045;-61
2022/03/16 06:56:50;;;;;;;38.40;21.27;;;;;;;;;;5042481;28;20507;-62
2022/03/16 06:59:17;;;;;;;39.65;22.75;;;;;;;;;;5042349;28;20053;-61
2022/03/16 07:01:43;;;;;;;38.90;21.92;;;;;;;;;;5042513;28;20483;-62
2022/03/16 07:04:09;;;;;;;39.67;22.30;;;;;;;;;;5042643;28;20059;-62
2022/03/16 07:06:35;;;;;;;40.47;23.05;;;;;;;;;;5042054;28;20045;-61
2022/03/16 07:09:02;;;;;;;42.63;23.20;;;;;;;;;;5041552;28;20041;-61
2022/03/16 07:11:28;;;;;;;38.88;22.83;;;;;;;;;;5041294;28;20495;-61
2022/03/16 07:16:41;;;;;;;43.30;22.42;;;;;;;;;;5042563;28;20052;-61
2022/03/16 07:19:08;;;;;;;42.70;23.02;;;;;;;;;;5042837;28;20049;-61
2022/03/16 07:21:34;;;;;;;41.72;22.95;;;;;;;;;;5042317;28;20114;-61
2022/03/16 07:24:00;;;;;;;42.95;23.33;;;;;;;;;;5042752;28;20115;-62
2022/03/16 07:26:27;;;;;;;40.83;23.08;;;;;;;;;;5042478;28;20118;-62
2022/03/16 07:28:54;;;;;;;40.53;22.88;;;;;;;;;;5042412;28;20124;-61
2022/03/16 07:31:20;;;;;;;40.22;23.05;;;;;;;;;;5043105;28;20079;-61
2022/03/16 07:33:46;;;;;;;40.53;23.85;;;;;;;;;;5041775;28;20094;-61
2022/03/16 07:36:12;;;;;;;41.83;23.67;;;;;;;;;;5042432;28;20458;-61
2022/03/16 07:38:38;;;;;;;38.33;23.15;;;;;;;;;;5042383;28;20052;-61
2022/03/16 07:41:05;;;;;;;39.63;22.90;;;;;;;;;;5045982;28;20398;-62
2022/03/16 07:43:31;;;;;;;42.80;24.20;;;;;;;;;;5045279;28;20045;-62
2022/03/16 07:45:58;;;;;;;37.78;23.40;;;;;;;;;;5045825;28;20077;-62
2022/03/16 07:48:24;;;;;;;41.65;24.27;;;;;;;;;;5045766;28;20045;-61
2022/03/16 07:50:51;;;;;;;44.70;23.45;;;;;;;;;;5046212;28;20085;-62
2022/03/16 07:53:17;;;;;;;42.33;23.63;;;;;;;;;;5045873;28;20084;-62
2022/03/16 07:55:45;;;;;;;41.90;23.30;;;;;;;;;;5045225;28;20041;-62
2022/03/16 07:58:12;;;;;;;45.05;25.13;;;;;;;;;;5045248;28;20124;-62
2022/03/16 08:00:38;;;;;;;41.70;22.85;;;;;;;;;;5045558;28;20406;-62
2022/03/16 08:03:04;;;;;;;46.33;24.02;;;;;;;;;;5045506;28;20048;-62
2022/03/16 08:05:31;;;;;;;43.88;23.65;;;;;;;;;;5045503;28;20099;-62
2022/03/16 08:07:57;;;;;;;44.78;24.23;;;;;;;;;;5045637;28;20613;-62
2022/03/16 08:10:23;;;;;;;41.03;22.83;;;;;;;;;;5045799;28;20053;-62
2022/03/16 08:12:49;;;;;;;37.67;21.90;;;;;;;;;;5045387;28;20441;-62
2022/03/16 08:15:16;;;;;;;39.47;21.70;;;;;;;;;;5044259;28;20426;-62
2022/03/16 08:17:42;;;;;;;40.47;22.42;;;;;;;;;;5045224;28;20045;-62
2022/03/16 08:20:09;;;;;;;41.63;23.13;;;;;;;;;;5045665;28;20048;-62
2022/03/16 08:22:35;;;;;;;41.63;22.40;;;;;;;;;;5045336;28;20088;-62
2022/03/16 08:25:03;;;;;;;42.75;22.30;;;;;;;;;;5027626;28;20056;-62
2022/03/16 08:27:29;;;;;;;39.97;20.60;;;;;;;;;;5045304;28;20076;-63
2022/03/16 08:29:56;;;;;;;37.60;21.98;;;;;;;;;;5043860;28;20124;-63
2022/03/16 08:32:22;;;;;;;35.20;20.35;;;;;;;;;;5045460;28;20831;-62
2022/03/16 08:34:49;;;;;;;37.90;20.70;;;;;;;;;;5044688;28;20037;-62
2022/03/16 08:37:15;;;;;;;34.90;21.30;;;;;;;;;;5027360;28;20126;-63
2022/03/16 08:39:42;;;;;;;40.15;20.80;;;;;;;;;;5045061;28;20045;-63
2022/03/16 08:42:10;;;;;;;41.33;22.20;;;;;;;;;;5045022;28;20048;-63
2022/03/16 08:44:37;;;;;;;41.53;22.35;;;;;;;;;;5043931;28;20528;-63
2022/03/16 08:47:03;;;;;;;42.22;23.75;;;;;;;;;;5044742;28;20051;-63
2022/03/16 08:49:30;;;;;;;39.20;19.98;;;;;;;;;;5026976;28;20076;-63
2022/03/16 08:51:57;;;;;;;34.60;19.25;;;;;;;;;;5044240;28;20040;-63
2022/03/16 08:54:24;;;;;;;40.28;22.75;;;;;;;;;;5026934;28;20052;-63
2022/03/16 08:56:50;;;;;;;40.30;22.08;;;;;;;;;;5044422;28;20045;-62
2022/03/16 08:59:19;;;;;;;40.03;20.98;;;;;;;;;;5043935;28;20620;-62
2022/03/16 09:01:45;;;;;;;35.75;19.80;;;;;;;;;;5044176;28;20416;-62
2022/03/16 09:04:11;;;;;;;38.22;20.55;;;;;;;;;;5044303;28;20052;-62
2022/03/16 09:06:37;;;;;;;36.85;20.88;;;;;;;;;;5026479;28;20056;-62
2022/03/16 09:09:04;;;;;;;39.70;19.25;;;;;;;;;;5044034;28;20053;-62
2022/03/16 09:11:30;;;;;;;39.50;20.73;;;;;;;;;;5044381;28;20414;-62
2022/03/16 09:13:56;;;;;;;37.42;21.13;;;;;;;;;;5043443;28;20037;-62
2022/03/16 09:16:22;;;;;;;37.40;20.60;;;;;;;;;;5044415;28;20522;-62
2022/03/16 09:18:49;;;;;;;37.40;21.02;;;;;;;;;;5043823;28;20519;-62
2022/03/16 09:21:16;;;;;;;39.10;20.92;;;;;;;;;;5026572;28;20483;-62
2022/03/16 09:23:42;;;;;;;33.83;18.38;;;;;;;;;;5043447;28;20556;-62
2022/03/16 09:26:08;;;;;;;35.10;18.67;;;;;;;;;;5044223;28;20129;-63
2022/03/16 09:28:34;;;;;;;33.97;18.52;;;;;;;;;;5043572;28;20478;-62
2022/03/16 09:31:00;;;;;;;34.75;17.52;;;;;;;;;;5043892;28;20406;-63
2022/03/16 09:33:30;;;;;;;26.85;15.77;;;;;;;;;;5043817;28;20442;-63
2022/03/16 09:35:56;;;;;;;32.95;15.43;;;;;;;;;;5043822;28;20144;-63
2022/03/16 09:38:24;;;;;;;25.00;14.68;;;;;;;;;;5043908;28;20041;-63
2022/03/16 09:40:52;;;;;;;26.90;15.13;;;;;;;;;;5044147;28;20084;-63
2022/03/16 09:43:19;;;;;;;28.13;13.55;;;;;;;;;;5043101;28;20546;-63
2022/03/16 09:45:54;;;;;;;27.65;14.77;;;;;;;;;;5043294;28;20059;-62
2022/03/16 09:48:21;;;;;;;21.88;12.73;;;;;;;;;;5025924;28;20563;-62
2022/03/16 09:50:48;;;;;;;25.13;10.48;;;;;;;;;;5043561;28;20498;-62
2022/03/16 09:53:15;;;;;;;19.35;9.60;;;;;;;;;;5043661;28;20076;-63
2022/03/16 09:55:41;;;;;;;19.30;10.45;;;;;;;;;;5043218;28;20052;-63
2022/03/16 09:58:08;;;;;;;23.45;11.30;;;;;;;;;;5024905;28;20052;-63
2022/03/16 10:00:34;;;;;;;24.45;11.70;;;;;;;;;;5043177;28;20116;-63
2022/03/16 10:03:02;;;;;;;19.95;10.32;;;;;;;;;;5042436;28;20049;-63
2022/03/16 10:05:29;;;;;;;20.65;10.68;;;;;;;;;;5043266;28;20079;-63
2022/03/16 10:07:59;;;;;;;21.77;11.57;;;;;;;;;;5043406;28;20053;-63
2022/03/16 10:13:15;;;;;;;20.77;11.23;;;;;;;;;;5025020;28;20163;-63
2022/03/16 10:15:42;;;;;;;21.80;11.00;;;;;;;;;;5043004;28;20049;-63
2022/03/16 10:18:09;;;;;;;22.23;11.57;;;;;;;;;;5043385;28;20048;-63
2022/03/16 10:20:36;;;;;;;22.38;11.57;;;;;;;;;;5043072;28;20045;-63
2022/03/16 10:23:08;;;;;;;25.75;12.45;;;;;;;;;;5043119;28;20124;-63
2022/03/16 10:25:45;;;;;;;22.25;11.07;;;;;;;;;;5042870;28;20534;-63
2022/03/16 10:28:14;;;;;;;23.52;11.20;;;;;;;;;;5042706;28;20091;-62
2022/03/16 10:30:49;;;;;;;23.15;11.85;;;;;;;;;;5043327;28;20376;-63
2022/03/16 10:33:16;;;;;;;23.60;11.73;;;;;;;;;;5042489;28;20513;-63
2022/03/16 10:35:56;;;;;;;22.55;11.52;;;;;;;;;;5042547;28;20098;-63
2022/03/16 10:38:23;;;;;;;27.60;11.15;;;;;;;;;;5043619;28;20137;-63
2022/03/16 10:40:50;;;;;;;23.13;11.20;;;;;;;;;;5043103;28;20048;-63
2022/03/16 10:48:58;;;;;;;22.92;11.98;;;;;;;;;;5042762;28;20049;-63
2022/03/16 10:51:24;;;;;;;24.13;12.70;;;;;;;;;;5043763;28;20048;-63
2022/03/16 10:53:52;;;;;;;22.85;11.90;;;;;;;;;;5043256;28;20044;-63
2022/03/16 10:56:19;;;;;;;18.25;11.10;;;;;;;;;;5043094;28;20127;-63
2022/03/16 10:58:46;;;;;;;21.77;11.48;;;;;;;;;;5041825;28;20398;-63
2022/03/16 11:01:13;;;;;;;22.23;11.30;;;;;;;;;;5042353;28;20051;-63
2022/03/16 11:03:41;;;;;;;18.65;11.07;;;;;;;;;;5042803;28;20120;-63
2022/03/16 11:06:08;;;;;;;20.38;11.05;;;;;;;;;;5042908;28;20052;-62
2022/03/16 11:08:37;;;;;;;23.85;11.65;;;;;;;;;;5042414;28;20080;-63
2022/03/16 11:13:49;;;;;;;19.67;11.23;;;;;;;;;;5042866;28;20061;-63
2022/03/16 11:16:22;;;;;;;17.05;9.48;;;;;;;;;;5046692;28;20271;-62
2022/03/16 11:18:48;;;;;;;18.58;10.70;;;;;;;;;;5046416;28;20041;-63
2022/03/16 11:21:17;;;;;;;19.45;10.07;;;;;;;;;;5046419;28;20045;-63
2022/03/16 11:26:44;;;;;;;19.85;10.60;;;;;;;;;;5046184;28;20479;-63
2022/03/16 11:29:34;;;;;;;17.95;9.57;;;;;;;;;;5045540;28;20094;-63
2022/03/16 11:32:19;;;;;;;23.15;10.55;;;;;;;;;;5046329;28;20041;-63
2022/03/16 11:34:55;;;;;;;22.05;10.05;;;;;;;;;;5045441;28;20049;-63
2022/03/16 11:37:32;;;;;;;17.08;8.85;;;;;;;;;;5046081;28;20053;-62
2022/03/16 11:40:05;;;;;;;15.73;8.50;;;;;;;;;;5045630;28;20086;-63
2022/03/16 11:42:32;;;;;;;14.82;8.25;;;;;;;;;;5044495;28;20041;-63
2022/03/16 11:45:19;;;;;;;17.50;9.20;;;;;;;;;;5044714;28;20036;-63
2022/03/16 11:47:46;;;;;;;17.80;8.23;;;;;;;;;;5044764;28;20498;-62
2022/03/16 11:50:14;;;;;;;24.27;9.73;;;;;;;;;;5044982;28;20163;-62
2022/03/16 11:53:00;;;;;;;21.27;9.25;;;;;;;;;;5045494;28;20088;-62
2022/03/16 11:55:43;;;;;;;21.90;8.82;;;;;;;;;;5045246;28;20052;-63
2022/03/16 11:58:16;;;;;;;16.35;8.90;;;;;;;;;;5026649;28;20084;-62
2022/03/16 12:00:44;;;;;;;16.83;9.63;;;;;;;;;;5044824;28;20048;-62
2022/03/16 12:03:20;;;;;;;17.58;9.68;;;;;;;;;;5045303;28;20084;-63
2022/03/16 12:05:55;;;;;;;20.23;9.65;;;;;;;;;;5027718;28;20566;-63
2022/03/16 12:08:23;;;;;;;21.67;10.52;;;;;;;;;;5040363;28;20092;-62
2022/03/16 12:12:50;;;;;;;16.52;10.00;;;;;;;;;;5023190;28;20050;-63
2022/03/16 12:13:44;;;;;;;20.17;10.05;;;;;;;;;;5024212;28;20546;-63
2022/03/16 12:16:12;;;;;;;20.38;10.77;;;;;;;;;;5043441;28;20040;-63
2022/03/16 12:18:40;;;;;;;22.40;10.63;;;;;;;;;;5045044;28;20419;-63
2022/03/16 12:21:08;;;;;;;19.23;10.47;;;;;;;;;;5043594;28;20037;-63
2022/03/16 12:23:45;;;;;;;20.20;10.50;;;;;;;;;;5040036;28;20046;-63
2022/03/16 12:26:12;;;;;;;17.08;10.27;;;;;;;;;;5024780;28;20041;-63
2022/03/16 12:29:01;;;;;;;21.20;10.50;;;;;;;;;;5024242;28;20046;-63
2022/03/16 12:31:25;;;;;;;20.63;10.68;;;;;;;;;;5024730;28;20050;-64
2022/03/16 12:33:53;;;;;;;22.17;10.88;;;;;;;;;;5007991;28;20048;-64
2022/03/16 12:36:21;;;;;;;18.30;9.88;;;;;;;;;;5024714;28;20080;-64
2022/03/16 12:38:47;;;;;;;;;;;;;;;;;;5033704;28;20052;-64
2022/03/16 12:44:01;;;;;;;20.40;10.73;;;;;;;;;;5030756;28;20557;-63
2022/03/16 12:46:33;;;;;;;23.65;10.65;;;;;;;;;;5023417;28;20051;-63
2022/03/16 12:49:02;;;;;;;20.23;10.88;;;;;;;;;;5042490;28;20045;-63
2022/03/16 12:51:36;;;;;;;22.25;11.35;;;;;;;;;;5041406;28;20045;-64
2022/03/16 12:54:02;;;;;;;27.58;12.07;;;;;;;;;;5026693;28;20095;-64
2022/03/16 12:56:28;;;;;;;21.10;10.70;;;;;;;;;;5044242;28;20084;-65
2022/03/16 12:58:55;;;;;;;21.00;10.23;;;;;;;;;;5043688;28;20047;-65
2022/03/16 13:01:22;;;;;;;20.02;11.18;;;;;;;;;;5034441;28;20048;-64
2022/03/16 13:04:00;;;;;;;21.02;11.98;;;;;;;;;;5022578;28;20041;-65
2022/03/16 13:06:28;;;;;;;22.00;11.05;;;;;;;;;;5033579;28;20118;-64
2022/03/16 13:08:55;;;;;;;19.75;10.20;;;;;;;;;;5031245;28;20061;-64
2022/03/16 13:11:24;;;;;;;22.70;11.20;;;;;;;;;;5042992;28;20048;-64
2022/03/16 13:14:02;;;;;;;20.38;11.52;;;;;;;;;;5040543;28;20491;-64
2022/03/16 13:16:30;;;;;;;19.77;10.07;;;;;;;;;;5023571;28;20045;-64
2022/03/16 13:18:56;;;;;;;22.27;10.45;;;;;;;;;;5033247;28;20041;-64
2022/03/16 13:21:24;;;;;;;21.40;11.15;;;;;;;;;;5032858;28;20041;-65
2022/03/16 13:23:59;;;;;;;22.27;10.95;;;;;;;;;;5024059;28;20053;-65
2022/03/16 13:26:28;;;;;;;22.30;11.02;;;;;;;;;;5028526;28;20056;-65
2022/03/16 13:28:55;;;;;;;;;;;;;;;;;;5036733;28;20057;-64
2022/03/16 13:31:28;;;;;;;21.83;11.45;;;;;;;;;;5036611;28;20295;-65
2022/03/16 13:33:55;;;;;;;27.73;10.98;;;;;;;;;;5041716;28;20533;-65
2022/03/16 13:36:32;;;;;;;20.75;11.10;;;;;;;;;;5043575;28;20136;-65
2022/03/16 13:39:00;;;;;;;22.97;10.80;;;;;;;;;;5043045;28;20052;-65
2022/03/16 13:41:26;;;;;;;22.40;11.63;;;;;;;;;;5025334;28;20048;-65
2022/03/16 13:44:02;;;;;;;22.40;10.68;;;;;;;;;;5043135;28;20183;-65
2022/03/16 13:46:38;;;;;;;19.63;10.77;;;;;;;;;;5032598;28;20140;-65
2022/03/16 13:49:15;;;;;;;21.88;10.45;;;;;;;;;;5028433;28;20045;-65
2022/03/16 13:52:02;;;;;;;21.45;11.48;;;;;;;;;;5018907;28;20052;-65
2022/03/16 13:54:29;;;;;;;23.35;11.57;;;;;;;;;;5021218;28;20072;-65
2022/03/16 13:56:55;;;;;;;23.30;11.63;;;;;;;;;;5033283;28;20043;-65
2022/03/16 13:59:21;;;;;;;19.98;11.15;;;;;;;;;;5043645;28;20041;-64
2022/03/16 14:01:48;;;;;;;22.00;11.55;;;;;;;;;;5025851;28;20075;-64
2022/03/16 14:04:19;;;;;;;22.52;11.75;;;;;;;;;;5044271;28;20094;-64
2022/03/16 14:06:55;;;;;;;21.95;12.15;;;;;;;;;;5042805;28;20152;-64
2022/03/16 14:09:22;;;;;;;20.67;11.55;;;;;;;;;;5044074;28;20136;-64
2022/03/16 14:11:49;;;;;;;19.55;11.05;;;;;;;;;;5043519;28;20045;-64
2022/03/16 14:14:16;;;;;;;19.48;11.13;;;;;;;;;;5042427;28;20041;-64
2022/03/16 14:16:44;;;;;;;19.80;11.25;;;;;;;;;;5024970;28;20100;-64
2022/03/16 14:19:27;;;;;;;23.27;11.55;;;;;;;;;;5042618;28;20049;-64
2022/03/16 14:21:53;;;;;;;21.05;11.77;;;;;;;;;;5027328;28;20045;-64
2022/03/16 14:24:20;;;;;;;22.30;11.73;;;;;;;;;;5042761;28;20052;-64
2022/03/16 14:26:46;;;;;;;20.38;11.15;;;;;;;;;;5042729;28;20073;-64
2022/03/16 14:29:12;;;;;;;21.52;12.27;;;;;;;;;;5042711;28;20113;-64
2022/03/16 14:31:39;;;;;;;19.85;11.13;;;;;;;;;;5042272;28;20048;-64
2022/03/16 14:34:06;;;;;;;20.30;11.35;;;;;;;;;;5043636;28;20095;-64
2022/03/16 14:36:33;;;;;;;21.42;11.55;;;;;;;;;;5043321;28;20045;-64
2022/03/16 14:39:00;;;;;;;23.13;12.15;;;;;;;;;;5042765;28;20140;-64
2022/03/16 14:41:27;;;;;;;21.17;11.13;;;;;;;;;;5032041;28;20419;-64
2022/03/16 14:43:53;;;;;;;23.60;11.80;;;;;;;;;;5022567;28;20045;-64